Time;durP1;ratioP1;P1;durP2;ratioP2;P2;SDS_P1;SDS_P2;PMS_P1;PMS_P2;Temp;Humidity;BMP_temperature;BMP_pressure;BME280_temperature;BME280_humidity;BME280_pressure;Samples;Min_cycle;Max_cycle;Signal;HPM_P1;HPM_P2
2022/05/21 00:02:18;;;;;;;4.43;3.10;;;12.70;99.90;;;;;;5076517;28;20509;-71
2022/05/21 00:05:07;;;;;;;3.67;3.20;;;12.70;99.90;;;;;;5076696;28;20536;-72
2022/05/21 00:07:56;;;;;;;4.60;3.27;;;12.60;99.90;;;;;;5073639;28;20970;-71
2022/05/21 00:10:45;;;;;;;4.13;3.67;;;12.60;99.90;;;;;;5075228;28;20668;-72
2022/05/21 00:13:33;;;;;;;3.93;3.50;;;12.60;99.90;;;;;;5070275;28;20482;-71
2022/05/21 00:16:22;;;;;;;3.00;2.77;;;12.50;99.90;;;;;;5074285;28;20965;-72
2022/05/21 00:19:11;;;;;;;4.03;3.50;;;12.50;99.90;;;;;;5075971;28;20549;-72
2022/05/21 00:21:59;;;;;;;6.60;3.70;;;12.50;99.90;;;;;;5074619;28;20561;-72
2022/05/21 00:24:47;;;;;;;3.20;2.60;;;12.50;99.90;;;;;;5070908;28;20526;-72
2022/05/21 00:27:36;;;;;;;4.20;3.37;;;12.50;99.90;;;;;;5071011;28;20478;-73
2022/05/21 00:30:24;;;;;;;4.27;3.00;;;12.50;99.90;;;;;;5067682;28;20475;-71
2022/05/21 00:33:13;;;;;;;3.47;2.83;;;12.40;99.90;;;;;;5071492;28;20480;-71
2022/05/21 00:36:01;;;;;;;5.27;3.60;;;12.40;99.90;;;;;;5076680;28;20632;-73
2022/05/21 00:38:49;;;;;;;3.80;3.30;;;12.40;99.90;;;;;;5070281;28;20517;-72
2022/05/21 00:41:38;;;;;;;4.37;3.97;;;12.40;99.90;;;;;;5071009;28;20452;-72
2022/05/21 00:44:28;;;;;;;5.77;3.93;;;12.30;99.90;;;;;;5078453;28;20539;-72
2022/05/21 00:47:17;;;;;;;4.20;3.57;;;12.30;99.90;;;;;;5081817;28;20444;-71
2022/05/21 00:50:07;;;;;;;4.00;3.60;;;12.30;99.90;;;;;;5075322;28;20633;-71
2022/05/21 00:52:57;;;;;;;6.17;4.33;;;12.20;99.90;;;;;;5074100;28;20551;-71
2022/05/21 00:55:46;;;;;;;5.17;3.80;;;12.20;99.90;;;;;;5084914;28;20545;-73
2022/05/21 01:01:49;;;;;;;5.27;4.80;;;12.10;99.90;;;;;;5093433;28;20521;-71
2022/05/21 01:04:38;;;;;;;5.20;4.20;;;12.10;99.90;;;;;;5087203;28;20499;-72
2022/05/21 01:07:26;;;;;;;4.40;4.10;;;12.10;99.90;;;;;;5074518;28;21027;-72
2022/05/21 01:10:18;;;;;;;7.80;4.97;;;12.10;99.90;;;;;;5074386;28;20463;-72
2022/05/21 01:13:14;;;;;;;6.57;4.27;;;12.10;99.90;;;;;;5073387;28;20561;-71
2022/05/21 01:16:04;;;;;;;6.60;4.43;;;12.10;99.90;;;;;;5072404;28;20536;-72
2022/05/21 01:18:56;;;;;;;6.33;4.70;;;12.10;99.90;;;;;;5081865;28;20611;-72
2022/05/21 01:21:44;;;;;;;4.50;4.10;;;12.10;99.90;;;;;;5081063;28;20459;-72
2022/05/21 01:24:33;;;;;;;5.30;3.87;;;12.00;99.90;;;;;;5074733;28;20472;-72
2022/05/21 01:27:22;;;;;;;5.27;4.20;;;12.00;99.90;;;;;;5072396;28;20473;-72
2022/05/21 01:30:14;;;;;;;4.30;3.80;;;12.10;99.90;;;;;;5073388;28;20749;-72
2022/05/21 01:33:03;;;;;;;4.87;4.37;;;12.00;99.90;;;;;;5069353;28;20481;-72
2022/05/21 01:35:51;;;;;;;4.80;4.30;;;12.10;99.90;;;;;;5073543;28;20619;-71
2022/05/21 01:38:45;;;;;;;4.53;3.90;;;12.10;99.90;;;;;;5075367;28;20448;-72
2022/05/21 01:41:34;;;;;;;5.33;4.63;;;11.90;99.90;;;;;;5068822;28;20551;-71
2022/05/21 01:44:40;;;;;;;4.57;4.13;;;12.00;99.90;;;;;;5074429;28;20699;-72
2022/05/21 01:47:32;;;;;;;4.70;4.17;;;11.90;99.90;;;;;;5080027;28;20507;-72
2022/05/21 01:50:20;;;;;;;4.47;4.07;;;11.90;99.90;;;;;;5091448;28;20451;-72
2022/05/21 01:53:08;;;;;;;4.67;4.20;;;11.90;99.90;;;;;;5084766;28;20554;-72
2022/05/21 01:55:57;;;;;;;4.73;4.17;;;11.80;99.90;;;;;;5077512;28;20571;-71
2022/05/21 01:58:47;;;;;;;3.90;3.50;;;11.80;99.90;;;;;;5078079;28;20567;-72
2022/05/21 02:01:35;;;;;;;6.13;3.90;;;11.80;99.90;;;;;;5077605;28;20551;-71
2022/05/21 02:04:24;;;;;;;4.70;3.60;;;11.80;99.90;;;;;;5075124;28;20626;-72
2022/05/21 02:07:12;;;;;;;4.23;3.60;;;11.80;99.90;;;;;;5079268;28;20456;-72
2022/05/21 02:10:00;;;;;;;5.70;3.47;;;11.80;99.90;;;;;;5080570;28;20466;-72
2022/05/21 02:12:48;;;;;;;3.73;3.07;;;11.90;99.90;;;;;;5072618;28;20617;-72
2022/05/21 02:15:37;;;;;;;4.30;3.90;;;11.90;99.90;;;;;;5071877;28;20469;-72
2022/05/21 02:18:26;;;;;;;5.50;4.23;;;11.90;99.90;;;;;;5079713;28;20453;-72
2022/05/21 02:21:14;;;;;;;4.27;3.63;;;11.90;99.90;;;;;;5075150;28;20682;-71
2022/05/21 02:24:03;;;;;;;6.70;4.50;;;12.00;99.90;;;;;;5075555;28;20844;-72
2022/05/21 02:26:51;;;;;;;4.53;4.07;;;12.00;99.90;;;;;;5076501;28;20794;-73
2022/05/21 02:29:40;;;;;;;4.77;4.30;;;12.00;99.90;;;;;;5074245;28;20580;-73
2022/05/21 02:32:29;;;;;;;5.77;5.10;;;12.00;99.90;;;;;;5079324;28;22386;-71
2022/05/21 02:35:18;;;;;;;5.00;4.70;;;12.00;99.90;;;;;;5077823;28;20674;-71
2022/05/21 02:41:14;;;;;;;7.10;5.97;;;12.10;99.90;;;;;;5079569;28;20479;-71
2022/05/21 02:44:03;;;;;;;6.87;5.80;;;12.10;99.90;;;;;;5076978;28;20610;-72
2022/05/21 02:46:51;;;;;;;5.93;4.60;;;12.10;99.90;;;;;;5082463;28;20448;-71
2022/05/21 02:49:41;;;;;;;8.73;4.37;;;12.20;99.90;;;;;;5075102;28;20538;-72
2022/05/21 02:52:29;;;;;;;5.03;4.60;;;12.10;99.90;;;;;;5074292;28;20510;-73
2022/05/21 02:55:18;;;;;;;5.47;4.30;;;12.10;99.90;;;;;;5078327;28;20499;-71
2022/05/21 02:58:07;;;;;;;4.70;4.30;;;12.10;99.90;;;;;;5069109;28;20462;-72
2022/05/21 03:00:56;;;;;;;6.30;5.40;;;12.10;99.90;;;;;;5068603;28;20465;-72
2022/05/21 03:03:44;;;;;;;6.10;4.87;;;12.10;99.90;;;;;;5076688;28;20471;-72
2022/05/21 03:06:34;;;;;;;5.47;4.87;;;12.10;99.90;;;;;;5079019;28;20536;-72
2022/05/21 03:12:27;;;;;;;5.40;4.87;;;12.20;99.90;;;;;;5078452;28;20524;-72
2022/05/21 03:15:16;;;;;;;5.30;4.90;;;12.20;99.90;;;;;;5069470;28;20461;-71
2022/05/21 03:18:06;;;;;;;5.20;4.70;;;12.20;99.90;;;;;;5070848;28;20454;-72
2022/05/21 03:20:54;;;;;;;6.00;5.50;;;12.20;99.90;;;;;;5080938;28;20535;-71
2022/05/21 03:23:43;;;;;;;5.97;5.37;;;12.20;99.90;;;;;;5082315;28;20950;-71
2022/05/21 03:26:31;;;;;;;7.40;5.17;;;12.20;99.90;;;;;;5078762;28;20526;-72
2022/05/21 03:29:20;;;;;;;5.40;4.90;;;12.20;99.90;;;;;;5072886;28;20987;-71
2022/05/21 03:32:09;;;;;;;5.53;4.83;;;12.20;99.90;;;;;;5081104;28;20512;-72
2022/05/21 03:34:57;;;;;;;5.20;4.20;;;12.30;99.90;;;;;;5082169;28;20461;-72
2022/05/21 03:37:45;;;;;;;4.67;4.23;;;12.30;99.90;;;;;;5076755;28;20456;-72
2022/05/21 03:40:35;;;;;;;5.93;4.63;;;12.30;99.90;;;;;;5077213;28;20548;-73
2022/05/21 03:43:23;;;;;;;4.57;4.17;;;12.20;99.90;;;;;;5079973;28;20833;-72
2022/05/21 03:46:12;;;;;;;5.13;3.90;;;12.20;99.90;;;;;;5080511;28;20987;-71
2022/05/21 03:49:00;;;;;;;5.00;4.50;;;12.20;99.90;;;;;;5080412;28;21045;-71
2022/05/21 03:51:48;;;;;;;5.10;4.60;;;12.20;99.90;;;;;;5075774;28;20983;-72
2022/05/21 03:54:36;;;;;;;4.60;4.20;;;12.20;99.90;;;;;;5078987;28;20564;-72
2022/05/21 03:57:26;;;;;;;5.20;4.60;;;12.30;99.90;;;;;;5075567;28;20548;-72
2022/05/21 04:00:17;;;;;;;6.10;4.80;;;12.30;99.90;;;;;;5081773;28;20530;-71
2022/05/21 04:03:05;;;;;;;6.17;3.70;;;12.30;99.90;;;;;;5077436;28;20509;-71
2022/05/21 04:05:55;;;;;;;4.63;4.20;;;12.40;99.90;;;;;;5079993;28;20598;-71
2022/05/21 04:08:43;;;;;;;4.50;4.10;;;12.30;99.90;;;;;;5077386;28;20453;-72
2022/05/21 04:11:31;;;;;;;6.33;4.80;;;12.30;99.90;;;;;;5076736;28;20503;-72
2022/05/21 04:14:21;;;;;;;5.13;4.60;;;12.30;99.90;;;;;;5080602;28;20533;-71
2022/05/21 04:17:13;;;;;;;4.60;4.30;;;12.30;99.90;;;;;;5077831;28;20942;-71
2022/05/21 04:20:01;;;;;;;5.20;4.70;;;12.30;99.90;;;;;;5082928;28;20512;-72
2022/05/21 04:22:50;;;;;;;5.47;5.07;;;12.30;99.90;;;;;;5078878;28;20517;-73
2022/05/21 04:25:38;;;;;;;5.23;4.83;;;12.30;99.90;;;;;;5078797;28;21052;-72
2022/05/21 04:28:26;;;;;;;6.60;6.00;;;12.30;99.90;;;;;;5081714;28;21069;-71
2022/05/21 04:31:16;;;;;;;6.20;5.60;;;12.30;99.90;;;;;;5073600;28;20486;-72
2022/05/21 04:34:04;;;;;;;6.40;5.80;;;12.30;99.90;;;;;;5094693;28;20480;-72
2022/05/21 04:36:52;;;;;;;6.63;6.13;;;12.40;99.90;;;;;;5093718;28;20473;-71
2022/05/21 04:39:45;;;;;;;8.33;7.63;;;12.40;99.90;;;;;;5092569;28;20575;-72
2022/05/21 04:42:33;;;;;;;7.60;6.80;;;12.40;99.90;;;;;;5080647;28;20493;-72
2022/05/21 04:45:22;;;;;;;8.80;7.90;;;12.40;99.90;;;;;;5084857;28;21423;-72
2022/05/21 04:48:12;;;;;;;8.17;7.43;;;12.40;99.90;;;;;;5082062;28;20650;-72
2022/05/21 04:51:02;;;;;;;8.77;7.97;;;12.40;99.90;;;;;;5080380;28;20502;-72
2022/05/21 04:53:50;;;;;;;8.90;8.00;;;12.40;99.90;;;;;;5073564;28;20536;-72
2022/05/21 04:56:38;;;;;;;13.10;9.60;;;12.40;99.90;;;;;;5076858;28;20568;-71
2022/05/21 04:59:28;;;;;;;10.90;9.07;;;12.50;99.90;;;;;;5079210;28;20483;-72
2022/05/21 05:02:16;;;;;;;11.20;10.10;;;12.40;99.90;;;;;;5076631;28;20552;-72
2022/05/21 05:05:06;;;;;;;13.13;10.80;;;12.50;99.90;;;;;;5072882;28;21043;-72
2022/05/21 05:07:54;;;;;;;12.33;11.00;;;12.50;99.90;;;;;;5081685;28;20594;-72
2022/05/21 05:10:43;;;;;;;12.50;11.13;;;12.50;99.90;;;;;;5078752;28;20448;-72
2022/05/21 05:13:31;;;;;;;14.47;13.07;;;12.50;99.90;;;;;;5077974;28;20553;-72
2022/05/21 05:16:19;;;;;;;15.97;14.43;;;12.50;99.90;;;;;;5072354;28;20563;-71
2022/05/21 05:19:07;;;;;;;18.10;16.03;;;12.60;99.90;;;;;;5083389;28;20971;-72
2022/05/21 05:21:57;;;;;;;18.57;16.60;;;12.50;99.90;;;;;;5077291;28;20545;-72
2022/05/21 05:24:45;;;;;;;18.27;16.40;;;12.60;99.90;;;;;;5079220;28;20598;-72
2022/05/21 05:27:33;;;;;;;18.37;16.47;;;12.60;99.90;;;;;;5074867;28;20601;-72
2022/05/21 05:30:22;;;;;;;16.97;15.37;;;12.60;99.90;;;;;;5073308;28;20560;-72
2022/05/21 05:33:11;;;;;;;17.33;15.63;;;12.60;99.90;;;;;;5074833;28;20992;-71
2022/05/21 05:35:59;;;;;;;20.93;17.00;;;12.60;99.90;;;;;;5078845;28;20543;-71
2022/05/21 05:38:48;;;;;;;18.97;17.07;;;12.60;99.90;;;;;;5084038;28;20453;-72
2022/05/21 05:41:38;;;;;;;21.47;19.33;;;12.60;99.90;;;;;;5081102;28;20536;-72
2022/05/21 05:44:26;;;;;;;19.67;17.67;;;12.70;99.90;;;;;;5074597;28;20645;-72
2022/05/21 05:47:14;;;;;;;18.90;16.87;;;12.70;99.90;;;;;;5088711;28;20552;-71
2022/05/21 05:50:03;;;;;;;20.27;17.87;;;12.70;99.90;;;;;;5108503;28;20516;-73
2022/05/21 05:52:51;;;;;;;19.30;17.20;;;12.70;99.90;;;;;;5096341;28;20504;-72
2022/05/21 05:55:42;;;;;;;20.53;18.33;;;12.70;99.90;;;;;;5092353;28;20547;-73
2022/05/21 06:01:36;;;;;;;20.37;18.17;;;12.80;99.90;;;;;;5075555;28;20460;-72
2022/05/21 06:04:24;;;;;;;19.90;17.90;;;12.80;99.90;;;;;;5087181;28;20464;-72
2022/05/21 06:07:13;;;;;;;20.90;18.40;;;12.80;99.90;;;;;;5086713;28;20488;-72
2022/05/21 06:10:03;;;;;;;19.23;17.27;;;12.80;99.90;;;;;;5082067;28;20483;-72
2022/05/21 06:12:57;;;;;;;20.00;17.93;;;12.80;99.90;;;;;;5075382;28;20514;-71
2022/05/21 06:15:45;;;;;;;19.27;17.33;;;12.80;99.90;;;;;;5083188;28;20472;-71
2022/05/21 06:18:33;;;;;;;18.80;16.93;;;12.80;99.90;;;;;;5076235;28;20466;-71
2022/05/21 06:21:22;;;;;;;20.40;18.50;;;12.80;99.90;;;;;;5078226;28;20977;-71
2022/05/21 06:24:10;;;;;;;20.93;18.60;;;12.80;99.90;;;;;;5072190;28;20498;-71
2022/05/21 06:26:58;;;;;;;19.90;17.87;;;12.80;99.90;;;;;;5076040;28;20453;-72
2022/05/21 06:29:48;;;;;;;20.27;18.27;;;12.90;99.90;;;;;;5075717;28;20530;-71
2022/05/21 06:32:36;;;;;;;21.53;19.40;;;12.90;99.90;;;;;;5074490;28;20996;-73
2022/05/21 06:35:26;;;;;;;22.77;20.37;;;12.90;99.90;;;;;;5074210;28;20489;-72
2022/05/21 06:38:15;;;;;;;23.17;20.77;;;12.90;99.90;;;;;;5077591;28;20690;-73
2022/05/21 06:41:04;;;;;;;21.63;19.40;;;13.00;99.90;;;;;;5073881;28;20498;-72
2022/05/21 06:43:52;;;;;;;24.20;20.70;;;13.00;99.90;;;;;;5075678;28;20501;-71
2022/05/21 06:46:42;;;;;;;24.37;21.93;;;13.10;99.90;;;;;;5066782;28;21123;-71
2022/05/21 06:49:30;;;;;;;25.33;21.60;;;13.10;99.90;;;;;;5057608;28;20544;-71
2022/05/21 06:52:18;;;;;;;23.50;21.00;;;13.10;99.90;;;;;;5061811;28;20473;-71
2022/05/21 06:55:07;;;;;;;22.50;19.50;;;13.20;99.90;;;;;;5060186;28;21039;-73
2022/05/21 06:57:55;;;;;;;21.90;19.60;;;13.20;99.90;;;;;;5059013;28;20466;-71
2022/05/21 07:00:44;;;;;;;21.97;19.77;;;13.20;99.90;;;;;;5060502;28;20451;-72
2022/05/21 07:03:33;;;;;;;22.30;19.30;;;13.30;99.90;;;;;;5073961;28;21048;-72
2022/05/21 07:09:27;;;;;;;21.30;18.93;;;13.40;99.90;;;;;;5070401;28;20529;-71
2022/05/21 07:12:15;;;;;;;20.27;18.37;;;13.50;99.90;;;;;;5067762;28;20485;-72
2022/05/21 07:15:06;;;;;;;21.40;19.10;;;13.50;99.90;;;;;;5067814;28;20505;-71
2022/05/21 07:18:00;;;;;;;20.80;18.80;;;13.60;99.90;;;;;;5075867;28;20913;-71
2022/05/21 07:20:51;;;;;;;22.47;19.77;;;13.60;99.90;;;;;;5062325;28;20796;-72
2022/05/21 07:23:39;;;;;;;21.20;19.17;;;13.70;99.90;;;;;;5074211;28;20500;-73
2022/05/21 07:26:28;;;;;;;22.03;19.80;;;13.70;99.90;;;;;;5067355;28;20532;-72
2022/05/21 07:29:16;;;;;;;24.50;19.97;;;13.80;99.90;;;;;;5070792;28;20594;-72
2022/05/21 07:32:05;;;;;;;21.50;17.73;;;13.80;99.90;;;;;;5065821;28;20489;-72
2022/05/21 07:34:58;;;;;;;20.80;18.73;;;13.90;99.90;;;;;;5075826;28;20487;-72
2022/05/21 07:37:48;;;;;;;19.63;17.70;;;13.90;99.90;;;;;;5062785;28;20454;-71
2022/05/21 07:40:37;;;;;;;18.47;16.67;;;14.00;99.90;;;;;;5071901;28;20540;-71
2022/05/21 07:43:27;;;;;;;18.80;16.90;;;14.00;99.90;;;;;;5063766;28;20925;-70
2022/05/21 07:46:16;;;;;;;18.60;16.33;;;14.10;99.90;;;;;;5063482;28;20472;-71
2022/05/21 07:49:04;;;;;;;20.17;17.67;;;14.20;99.90;;;;;;5057506;28;20489;-73
2022/05/21 07:51:52;;;;;;;19.10;16.83;;;14.30;99.90;;;;;;5058362;28;20457;-71
2022/05/21 07:54:41;;;;;;;16.07;14.57;;;14.40;99.90;;;;;;5058845;28;20481;-72
2022/05/21 07:57:29;;;;;;;18.27;13.70;;;14.50;99.90;;;;;;5068787;28;20456;-72
2022/05/21 08:00:18;;;;;;;14.30;13.03;;;14.60;99.90;;;;;;5066918;28;20449;-72
2022/05/21 08:03:08;;;;;;;14.07;12.67;;;14.70;99.90;;;;;;5056552;28;20485;-72
2022/05/21 08:05:56;;;;;;;14.10;12.80;;;14.80;99.90;;;;;;5069682;28;20468;-71
2022/05/21 08:08:44;;;;;;;16.13;13.23;;;14.70;99.90;;;;;;5064897;28;20575;-72
2022/05/21 08:11:34;;;;;;;14.37;12.00;;;14.70;99.90;;;;;;5060584;28;20615;-71
2022/05/21 08:14:23;;;;;;;15.10;12.07;;;14.70;99.90;;;;;;5064164;28;20478;-72
2022/05/21 08:17:12;;;;;;;13.83;12.47;;;14.70;99.90;;;;;;5063206;28;20540;-72
2022/05/21 08:20:00;;;;;;;13.17;11.90;;;14.70;99.90;;;;;;5067223;28;20563;-72
2022/05/21 08:29:00;;;;;;;12.63;11.43;;;14.60;99.90;;;;;;5038300;28;20490;-72
2022/05/21 08:31:48;;;;;;;12.87;10.80;;;14.50;99.90;;;;;;5061559;28;20819;-71
2022/05/21 08:34:37;;;;;;;10.13;8.57;;;14.40;99.90;;;;;;5050453;28;20557;-74
2022/05/21 08:37:27;;;;;;;10.43;8.43;;;14.50;99.90;;;;;;5058159;28;20452;-74
2022/05/21 08:40:16;;;;;;;8.77;6.90;;;14.60;99.90;;;;;;5064179;28;20595;-74
2022/05/21 08:43:10;;;;;;;10.93;7.07;;;14.70;99.90;;;;;;5061558;28;20482;-74
2022/05/21 08:46:07;;;;;;;7.83;5.70;;;14.80;99.90;;;;;;5055009;28;20560;-74
2022/05/21 08:49:02;;;;;;;6.30;5.70;;;14.70;99.90;;;;;;5055469;28;20486;-74
2022/05/21 08:51:57;;;;;;;5.87;5.37;;;14.70;99.90;;;;;;5053686;28;20472;-72
2022/05/21 08:54:47;;;;;;;5.30;4.50;;;14.80;99.90;;;;;;5052385;28;20475;-73
2022/05/21 08:57:43;;;;;;;5.80;4.40;;;14.90;99.90;;;;;;5065980;28;21179;-71
2022/05/21 09:00:37;;;;;;;3.40;3.10;;;15.00;99.90;;;;;;5052610;28;20445;-72
2022/05/21 09:03:27;;;;;;;4.63;3.20;;;15.00;99.90;;;;;;5064040;28;20484;-71
2022/05/21 09:06:31;;;;;;;4.23;2.77;;;14.90;99.90;;;;;;5053866;28;20583;-72
2022/05/21 09:09:36;;;;;;;4.47;3.40;;;14.80;99.90;;;;;;5063199;28;20498;-72
2022/05/21 09:12:33;;;;;;;5.23;3.40;;;14.70;99.90;;;;;;5067815;28;20549;-71
2022/05/21 09:18:32;;;;;;;4.73;3.37;;;14.80;99.90;;;;;;5051916;28;20696;-71
2022/05/21 09:21:23;;;;;;;4.03;3.63;;;14.80;99.90;;;;;;5049158;28;20499;-72
2022/05/21 09:24:36;;;;;;;3.50;3.13;;;14.80;99.90;;;;;;5059815;28;20472;-71
2022/05/21 09:27:29;;;;;;;3.80;3.40;;;14.80;99.90;;;;;;5042198;28;20495;-73
2022/05/21 09:30:23;;;;;;;5.00;3.30;;;14.80;99.90;;;;;;5050191;28;24539;-71
2022/05/21 09:33:24;;;;;;;3.77;2.63;;;14.90;99.90;;;;;;5053360;28;20527;-73
2022/05/21 09:36:18;;;;;;;6.03;2.90;;;14.80;99.90;;;;;;5050323;28;20533;-73
2022/05/21 09:39:06;;;;;;;4.07;3.00;;;14.70;99.90;;;;;;5046664;28;20460;-71
2022/05/21 09:42:08;;;;;;;4.10;2.83;;;14.70;99.90;;;;;;5049774;28;21033;-72
2022/05/21 09:48:22;;;;;;;3.80;2.53;;;14.80;99.90;;;;;;5062194;28;20497;-72
2022/05/21 09:51:26;;;;;;;5.43;2.40;;;14.90;99.90;;;;;;5067795;28;20476;-71
2022/05/21 09:54:26;;;;;;;6.93;2.53;;;14.90;99.90;;;;;;5079447;28;20472;-71
2022/05/21 09:57:23;;;;;;;6.47;3.10;;;15.00;99.90;;;;;;5078302;28;20560;-72
2022/05/21 10:00:23;;;;;;;7.50;2.77;;;14.90;99.90;;;;;;5076339;28;20962;-71
2022/05/21 10:03:12;;;;;;;4.33;2.80;;;14.90;99.90;;;;;;5077820;28;20476;-71
2022/05/21 10:06:03;;;;;;;2.83;2.17;;;14.90;99.90;;;;;;5073574;28;20586;-71
2022/05/21 10:12:08;;;;;;;4.00;2.67;;;15.00;99.90;;;;;;5086848;28;20497;-72
2022/05/21 10:15:03;;;;;;;4.77;3.00;;;15.10;99.90;;;;;;5083602;28;20537;-71
2022/05/21 10:17:59;;;;;;;3.20;2.90;;;15.10;99.90;;;;;;5082299;28;20452;-71
2022/05/21 10:20:51;;;;;;;3.00;2.47;;;15.20;99.90;;;;;;5080756;28;20559;-71
2022/05/21 10:23:46;;;;;;;3.33;2.53;;;15.20;99.90;;;;;;5084460;28;20960;-71
2022/05/21 10:26:48;;;;;;;7.63;3.23;;;15.10;99.90;;;;;;5103471;28;20456;-72
2022/05/21 10:33:24;;;;;;;4.47;3.33;;;15.10;99.90;;;;;;5101672;27;20560;-70
2022/05/21 10:36:23;;;;;;;5.83;3.30;;;15.20;99.90;;;;;;5052226;28;20479;-69
2022/05/21 10:39:31;;;;;;;4.63;3.50;;;15.40;99.90;;;;;;5053027;28;20477;-70
2022/05/21 10:42:41;;;;;;;7.07;2.83;;;15.60;99.90;;;;;;5055913;28;20493;-69
2022/05/21 10:45:33;;;;;;;6.20;3.00;;;15.60;99.90;;;;;;5053952;28;20458;-70
2022/05/21 10:48:40;;;;;;;5.10;2.53;;;15.50;99.90;;;;;;5052693;28;20468;-69
2022/05/21 10:51:33;;;;;;;4.33;2.80;;;15.70;99.90;;;;;;5050862;28;21020;-69
2022/05/21 10:54:39;;;;;;;5.97;2.50;;;15.70;99.90;;;;;;5049807;28;20578;-70
2022/05/21 10:57:51;;;;;;;2.73;2.13;;;15.80;99.90;;;;;;5057316;28;20599;-69
2022/05/21 11:00:50;;;;;;;6.53;2.23;;;16.00;99.90;;;;;;5061904;28;20455;-70
2022/05/21 11:04:06;;;;;;;4.20;2.50;;;16.10;99.90;;;;;;5060267;28;20499;-69
2022/05/21 11:07:17;;;;;;;7.73;2.63;;;16.30;99.90;;;;;;5053021;28;20458;-69
2022/05/21 11:10:14;;;;;;;4.57;2.20;;;16.30;99.90;;;;;;5051825;28;20466;-69
2022/05/21 11:13:10;;;;;;;4.00;2.53;;;16.40;99.90;;;;;;5051077;28;20467;-69
2022/05/21 11:16:03;;;;;;;4.10;2.37;;;16.30;99.90;;;;;;5052126;28;20493;-69
2022/05/21 11:18:57;;;;;;;4.27;2.13;;;16.40;99.90;;;;;;5050409;28;20491;-69
2022/05/21 11:21:49;;;;;;;3.30;2.00;;;16.50;99.90;;;;;;5051222;28;20497;-69
2022/05/21 11:24:45;;;;;;;3.23;2.17;;;16.50;99.90;;;;;;5050680;28;20474;-69
2022/05/21 11:27:37;;;;;;;5.00;2.30;;;16.60;99.90;;;;;;5051491;28;20574;-70
2022/05/21 11:30:26;;;;;;;5.23;2.03;;;16.70;99.90;;;;;;5050426;28;21011;-71
2022/05/21 11:39:38;;;;;;;4.27;2.30;;;16.90;99.90;;;;;;5050618;28;20849;-70
2022/05/21 11:42:28;;;;;;;4.17;2.00;;;17.00;99.90;;;;;;5047423;28;20564;-69
2022/05/21 11:45:23;;;;;;;1.77;1.63;;;16.90;99.90;;;;;;5037504;28;20493;-72
2022/05/21 11:48:16;;;;;;;3.20;1.27;;;16.90;99.90;;;;;;5035883;28;20497;-69
2022/05/21 11:51:25;;;;;;;3.37;2.50;;;16.80;99.90;;;;;;5039371;28;20538;-69
2022/05/21 11:54:48;;;;;;;3.83;1.73;;;16.80;99.90;;;;;;5025503;28;20573;-69
2022/05/21 11:57:39;;;;;;;3.40;1.90;;;16.80;99.90;;;;;;5039456;28;20483;-70
2022/05/21 12:00:55;;;;;;;5.43;1.90;;;16.90;99.90;;;;;;5056952;28;20580;-69
2022/05/21 12:03:54;;;;;;;5.23;2.27;;;17.10;99.90;;;;;;5073953;28;20550;-70
2022/05/21 12:06:42;;;;;;;5.30;2.13;;;17.20;99.90;;;;;;5075623;28;20897;-70
2022/05/21 12:09:31;;;;;;;2.87;1.67;;;17.40;99.90;;;;;;5076000;28;20587;-69
2022/05/21 12:12:22;;;;;;;5.93;1.73;;;17.50;99.90;;;;;;5077522;28;20469;-70
2022/05/21 12:15:16;;;;;;;3.30;2.03;;;17.70;99.90;;;;;;5076669;28;20565;-70
2022/05/21 12:18:09;;;;;;;4.30;1.80;;;17.80;99.90;;;;;;5077459;28;20507;-70
2022/05/21 12:20:57;;;;;;;5.00;1.60;;;18.00;99.90;;;;;;5078439;28;20480;-70
2022/05/21 12:24:05;;;;;;;2.10;1.30;;;18.00;99.90;;;;;;5076833;28;20482;-70
2022/05/21 12:27:02;;;;;;;5.57;2.07;;;18.00;99.90;;;;;;5076080;28;20540;-70
2022/05/21 12:29:56;;;;;;;2.50;1.30;;;18.10;99.90;;;;;;5078183;28;20442;-70
2022/05/21 12:32:49;;;;;;;2.53;1.60;;;18.10;99.90;;;;;;5079177;28;20616;-70
2022/05/21 12:35:48;;;;;;;2.10;1.40;;;18.00;99.90;;;;;;5077698;28;21229;-70
2022/05/21 12:38:39;;;;;;;3.83;1.50;;;18.10;99.90;;;;;;5078157;28;20536;-70
2022/05/21 12:41:35;;;;;;;5.80;1.73;;;18.20;99.90;;;;;;5078406;28;20442;-70
2022/05/21 12:44:38;;;;;;;3.50;1.60;;;18.20;99.90;;;;;;5073470;28;20536;-70
2022/05/21 12:47:29;;;;;;;5.87;1.43;;;18.30;99.90;;;;;;5077060;28;20816;-70
2022/05/21 12:50:21;;;;;;;2.77;1.30;;;18.40;99.90;;;;;;5076874;28;20440;-70
2022/05/21 12:53:10;;;;;;;4.80;1.40;;;18.30;99.90;;;;;;5076983;28;20506;-71
2022/05/21 12:56:01;;;;;;;7.53;1.73;;;18.00;99.90;;;;;;5073931;28;20602;-70
2022/05/21 12:59:02;;;;;;;3.10;1.40;;;18.10;99.90;;;;;;5081756;28;20448;-70
2022/05/21 13:01:56;;;;;;;6.17;1.23;;;18.30;99.90;;;;;;5076802;28;20533;-70
2022/05/21 13:04:48;;;;;;;4.77;1.20;;;18.40;99.90;;;;;;5073161;28;20473;-71
2022/05/21 13:07:41;;;;;;;6.13;1.50;;;18.30;99.90;;;;;;5071470;28;20445;-71
2022/05/21 13:10:32;;;;;;;3.73;1.60;;;18.40;99.90;;;;;;5074862;28;20537;-71
2022/05/21 13:13:23;;;;;;;3.50;1.50;;;18.50;99.90;;;;;;5076002;28;20925;-71
2022/05/21 13:16:16;;;;;;;3.17;1.43;;;18.50;99.90;;;;;;5077885;28;20569;-71
2022/05/21 13:19:38;;;;;;;4.20;2.20;;;18.60;99.90;;;;;;5076072;28;20437;-71
2022/05/21 13:22:49;;;;;;;4.00;1.67;;;18.80;99.90;;;;;;5075080;28;20549;-71
2022/05/21 13:25:37;;;;;;;3.37;1.30;;;18.90;99.90;;;;;;5073626;28;20638;-71
2022/05/21 13:28:26;;;;;;;2.47;1.60;;;18.90;99.90;;;;;;5075562;28;20826;-71
2022/05/21 13:31:19;;;;;;;3.40;1.73;;;18.90;99.90;;;;;;5075564;28;20591;-71
2022/05/21 13:34:07;;;;;;;3.70;1.70;;;18.90;99.90;;;;;;5073924;28;20576;-71
2022/05/21 13:36:59;;;;;;;4.10;1.67;;;18.70;99.90;;;;;;5075898;28;20595;-71
2022/05/21 13:40:00;;;;;;;3.73;1.60;;;18.70;99.90;;;;;;5075448;28;20456;-71
2022/05/21 13:42:51;;;;;;;7.50;2.17;;;18.80;99.90;;;;;;5074244;28;21167;-71
2022/05/21 13:45:51;;;;;;;2.60;1.43;;;18.80;99.90;;;;;;5074743;28;20471;-71
2022/05/21 13:48:45;;;;;;;4.80;1.83;;;18.70;99.90;;;;;;5076445;28;20449;-71
2022/05/21 13:51:33;;;;;;;5.57;2.00;;;18.60;99.90;;;;;;5075729;28;20591;-71
2022/05/21 13:54:23;;;;;;;3.07;1.47;;;18.70;99.90;;;;;;5074569;28;20667;-71
2022/05/21 13:57:20;;;;;;;3.63;1.70;;;18.60;99.90;;;;;;5077063;28;20506;-71
2022/05/21 14:00:16;;;;;;;5.00;1.40;;;18.60;99.90;;;;;;5076118;28;20457;-71
2022/05/21 14:03:20;;;;;;;2.93;1.50;;;18.50;99.90;;;;;;5075163;28;20478;-71
2022/05/21 14:06:16;;;;;;;4.60;1.60;;;18.70;99.90;;;;;;5075168;28;24371;-72
2022/05/21 14:09:04;;;;;;;3.10;1.40;;;18.50;99.90;;;;;;5074117;28;20463;-71
2022/05/21 14:11:55;;;;;;;4.27;1.30;;;18.50;99.90;;;;;;5075303;28;20472;-71
2022/05/21 14:14:45;;;;;;;2.63;1.40;;;18.40;99.90;;;;;;5076618;28;20565;-71
2022/05/21 14:17:35;;;;;;;2.40;1.33;;;18.60;99.90;;;;;;5075874;28;20506;-71
2022/05/21 14:20:27;;;;;;;4.13;1.57;;;19.00;99.90;;;;;;5076758;28;20552;-71
2022/05/21 14:23:26;;;;;;;5.73;1.40;;;19.00;99.90;;;;;;5074598;28;20469;-71
2022/05/21 14:26:35;;;;;;;4.20;1.50;;;19.00;99.90;;;;;;5074539;28;20567;-71
2022/05/21 14:29:40;;;;;;;2.63;1.30;;;19.60;99.90;;;;;;5077372;28;20968;-71
2022/05/21 14:32:33;;;;;;;2.63;1.20;;;20.10;99.90;;;;;;5073992;28;20941;-71
2022/05/21 14:35:28;;;;;;;6.77;1.50;;;20.20;99.90;;;;;;5076611;28;20475;-71
2022/05/21 14:38:20;;;;;;;6.03;1.50;;;20.00;99.90;;;;;;5071099;28;20935;-71
2022/05/21 14:41:28;;;;;;;5.70;1.33;;;20.10;99.90;;;;;;5073268;28;20561;-71
2022/05/21 14:44:21;;;;;;;1.50;1.20;;;20.20;99.90;;;;;;5073875;28;20560;-71
2022/05/21 14:53:24;;;;;;;4.47;1.87;;;19.90;99.90;;;;;;5076920;28;21070;-71
2022/05/21 14:56:21;;;;;;;3.53;2.00;;;19.70;99.90;;;;;;5074039;28;20591;-71
2022/05/21 14:59:09;;;;;;;5.03;2.00;;;19.30;99.90;;;;;;5077322;28;20943;-71
2022/05/21 15:01:58;;;;;;;4.80;2.70;;;19.30;99.90;;;;;;5074772;28;20576;-72
2022/05/21 15:04:46;;;;;;;3.80;2.00;;;19.20;99.90;;;;;;5074028;28;20526;-71
2022/05/21 15:07:39;;;;;;;4.73;2.07;;;19.20;99.90;;;;;;5075954;28;20572;-71
2022/05/21 15:10:28;;;;;;;2.60;1.83;;;19.30;99.90;;;;;;5074961;28;20441;-71
2022/05/21 15:13:16;;;;;;;4.07;1.83;;;19.20;99.90;;;;;;5074817;28;20479;-71
2022/05/21 15:16:05;;;;;;;4.27;1.90;;;19.00;99.90;;;;;;5071799;28;20528;-71
2022/05/21 15:18:54;;;;;;;4.83;2.10;;;19.00;99.90;;;;;;5080375;28;20463;-72
2022/05/21 15:21:58;;;;;;;4.60;2.10;;;18.80;99.90;;;;;;5078461;28;20575;-71
2022/05/21 15:24:47;;;;;;;3.57;1.83;;;18.90;99.90;;;;;;5074454;28;20568;-71
2022/05/21 15:27:37;;;;;;;4.80;1.93;;;19.00;99.90;;;;;;5077543;28;20945;-71
2022/05/21 15:30:28;;;;;;;2.70;1.57;;;19.20;99.90;;;;;;5080458;28;20458;-71
2022/05/21 15:33:19;;;;;;;6.73;1.93;;;19.40;99.90;;;;;;5077681;28;21182;-71
2022/05/21 15:36:07;;;;;;;5.77;2.50;;;19.50;99.90;;;;;;5077239;28;20556;-72
2022/05/21 15:38:55;;;;;;;5.30;2.47;;;19.40;99.90;;;;;;5079125;28;21488;-71